createdAt,value
2023-12-23T00:02:48.185Z,10.90
2023-12-23T00:06:30.125Z,10.90
2023-12-23T00:10:12.263Z,11.00
2023-12-23T00:13:54.324Z,11.00
2023-12-23T00:17:36.544Z,11.00
2023-12-23T00:21:18.707Z,11.00
2023-12-23T00:25:00.667Z,10.90
2023-12-23T00:28:42.662Z,10.80
2023-12-23T00:32:24.581Z,10.80
2023-12-23T00:36:07.018Z,10.60
2023-12-23T00:39:48.947Z,10.60
2023-12-23T00:43:31.256Z,10.50
2023-12-23T00:47:13.300Z,10.50
2023-12-23T00:50:55.514Z,10.50
2023-12-23T00:54:37.458Z,10.60
2023-12-23T00:58:19.952Z,10.60
2023-12-23T01:02:02.182Z,10.70
2023-12-23T01:05:44.232Z,10.70
2023-12-23T01:09:26.235Z,10.70
2023-12-23T01:13:08.547Z,10.80
2023-12-23T01:16:50.534Z,10.90
2023-12-23T01:20:32.616Z,10.90
2023-12-23T01:24:14.671Z,10.90
2023-12-23T01:27:56.796Z,10.90
2023-12-23T01:31:38.818Z,11.00
2023-12-23T01:35:20.862Z,11.00
2023-12-23T01:39:03.390Z,11.00
2023-12-23T01:42:45.416Z,11.00
2023-12-23T01:46:28.265Z,11.10
2023-12-23T01:50:11.059Z,11.10
2023-12-23T01:53:54.325Z,11.10
2023-12-23T01:57:37.545Z,11.10
2023-12-23T02:01:19.670Z,11.20
2023-12-23T02:05:01.907Z,11.20
2023-12-23T02:08:43.981Z,11.10
2023-12-23T02:13:24.243Z,11.20
2023-12-23T02:17:06.418Z,11.20
2023-12-23T02:20:52.282Z,11.20
2023-12-23T02:24:34.307Z,11.20
2023-12-23T02:28:17.194Z,11.20
2023-12-23T02:32:00.981Z,11.20
2023-12-23T02:35:43.197Z,11.20
2023-12-23T02:39:25.150Z,11.30
2023-12-23T02:43:07.296Z,11.20
2023-12-23T02:46:49.315Z,11.20
2023-12-23T02:50:31.264Z,11.30
2023-12-23T02:54:13.209Z,11.30
2023-12-23T02:57:55.288Z,11.20
2023-12-23T03:01:37.429Z,11.30
2023-12-23T03:05:19.747Z,11.30
2023-12-23T03:09:01.865Z,11.30
2023-12-23T03:12:43.870Z,11.30
2023-12-23T03:16:25.896Z,11.40
2023-12-23T03:20:09.948Z,11.40
2023-12-23T03:23:52.144Z,11.40
2023-12-23T03:27:34.118Z,11.40
2023-12-23T03:31:16.129Z,11.40
2023-12-23T03:34:58.104Z,11.40
2023-12-23T03:38:40.037Z,11.40
2023-12-23T03:42:22.069Z,11.40
2023-12-23T03:46:04.408Z,11.30
2023-12-23T03:49:46.403Z,11.20
2023-12-23T03:53:28.459Z,11.10
2023-12-23T03:57:10.435Z,11.10
2023-12-23T04:00:52.570Z,11.00
2023-12-23T04:04:38.072Z,11.00
2023-12-23T04:08:20.602Z,11.00
2023-12-23T04:12:03.032Z,11.00
2023-12-23T04:15:45.122Z,11.00
2023-12-23T04:19:27.132Z,11.10
2023-12-23T04:23:09.100Z,11.10
2023-12-23T04:26:51.073Z,11.00
2023-12-23T04:30:33.128Z,11.00
2023-12-23T04:34:15.247Z,10.90
2023-12-23T04:37:57.339Z,10.90
2023-12-23T04:41:39.449Z,10.80
2023-12-23T04:45:21.573Z,10.70
2023-12-23T04:49:03.616Z,10.70
2023-12-23T04:52:46.039Z,10.60
2023-12-23T04:56:28.316Z,10.60
2023-12-23T05:00:10.913Z,10.60
2023-12-23T05:03:52.975Z,10.50
2023-12-23T05:07:34.948Z,10.50
2023-12-23T05:11:16.990Z,10.50
2023-12-23T05:14:58.977Z,10.50
2023-12-23T05:18:41.280Z,10.50
2023-12-23T05:22:23.495Z,10.40
2023-12-23T05:26:05.727Z,10.40
2023-12-23T05:29:47.911Z,10.40
2023-12-23T05:33:29.959Z,10.40
2023-12-23T05:37:12.089Z,10.50
2023-12-23T05:40:54.257Z,10.40
2023-12-23T05:44:36.300Z,10.40
2023-12-23T05:48:18.503Z,10.40
2023-12-23T05:52:00.878Z,10.40
2023-12-23T05:55:43.075Z,10.40
2023-12-23T05:59:25.658Z,10.40
2023-12-23T06:03:07.793Z,10.40
2023-12-23T06:06:49.910Z,10.30
2023-12-23T06:10:35.535Z,10.30
2023-12-23T06:14:26.128Z,10.30
2023-12-23T06:18:08.360Z,10.20
2023-12-23T06:21:50.418Z,10.20
2023-12-23T06:25:34.026Z,10.30
2023-12-23T06:29:19.373Z,10.30
2023-12-23T06:33:01.890Z,10.50
2023-12-23T06:36:43.930Z,10.60
2023-12-23T06:40:25.993Z,10.60
2023-12-23T06:44:07.945Z,10.70
2023-12-23T06:47:50.111Z,10.70
2023-12-23T06:51:32.162Z,10.70
2023-12-23T06:55:14.266Z,10.70
2023-12-23T06:58:56.300Z,10.60
2023-12-23T07:02:38.402Z,10.60
2023-12-23T07:06:20.446Z,10.60
2023-12-23T07:10:05.372Z,10.60
2023-12-23T07:13:50.189Z,10.50
2023-12-23T07:17:38.767Z,10.50
2023-12-23T07:21:23.901Z,10.50
2023-12-23T07:25:06.520Z,10.50
2023-12-23T07:28:48.553Z,10.60
2023-12-23T07:32:30.894Z,10.60
2023-12-23T07:36:13.118Z,10.60
2023-12-23T07:39:55.566Z,10.60
2023-12-23T07:43:38.343Z,10.60
2023-12-23T07:47:20.573Z,10.50
2023-12-23T07:51:10.037Z,10.50
2023-12-23T07:54:53.477Z,10.40
2023-12-23T07:58:35.539Z,10.30
2023-12-23T08:02:17.772Z,10.20
2023-12-23T08:05:59.987Z,10.20
2023-12-23T08:09:42.044Z,10.10
2023-12-23T08:13:25.073Z,10.10
2023-12-23T08:17:07.066Z,10.10
2023-12-23T08:20:49.190Z,10.10
2023-12-23T08:24:31.197Z,10.10
2023-12-23T08:28:13.147Z,10.10
2023-12-23T08:31:55.166Z,10.10
2023-12-23T08:35:39.784Z,10.10
2023-12-23T08:39:23.808Z,10.20
2023-12-23T08:43:05.867Z,10.30
2023-12-23T08:46:48.032Z,10.40
2023-12-23T08:50:30.701Z,10.40
2023-12-23T08:54:35.175Z,10.40
2023-12-23T08:58:17.389Z,10.40
2023-12-23T09:02:03.645Z,10.50
2023-12-23T09:05:54.675Z,10.50
2023-12-23T09:09:37.073Z,10.60
2023-12-23T09:13:19.191Z,10.70
2023-12-23T09:17:08.347Z,10.70
2023-12-23T09:20:50.724Z,10.80
2023-12-23T09:24:33.327Z,10.90
2023-12-23T09:28:22.793Z,11.00
2023-12-23T09:32:05.766Z,11.00
2023-12-23T09:36:34.099Z,11.10
2023-12-23T09:41:04.520Z,11.10
2023-12-23T09:45:35.374Z,11.20
2023-12-23T09:50:05.330Z,11.30
2023-12-23T09:58:05.913Z,11.30
2023-12-23T10:02:08.937Z,11.40
2023-12-23T10:05:53.555Z,11.40
2023-12-23T10:10:20.977Z,11.40
2023-12-23T10:14:52.953Z,11.50
2023-12-23T10:19:22.836Z,11.50
2023-12-23T10:27:17.279Z,11.60
2023-12-23T10:31:45.452Z,11.60
2023-12-23T10:36:16.071Z,11.70
2023-12-23T10:40:46.713Z,11.80
2023-12-23T10:45:16.545Z,11.80
2023-12-23T10:49:47.755Z,11.80
2023-12-23T10:54:17.925Z,11.90
2023-12-23T10:58:47.435Z,12.00
2023-12-23T11:15:13.755Z,11.90
2023-12-23T11:24:02.929Z,12.00
2023-12-23T11:27:45.048Z,12.00
2023-12-23T11:31:54.084Z,11.90
2023-12-23T11:35:39.244Z,11.90
2023-12-23T11:39:45.556Z,11.80
2023-12-23T11:43:28.047Z,11.80
2023-12-23T11:47:38.587Z,11.90
2023-12-23T11:51:20.677Z,11.80
2023-12-23T11:55:35.759Z,11.70
2023-12-23T11:59:18.091Z,11.80
2023-12-23T12:07:03.430Z,11.90
2023-12-23T12:11:20.412Z,11.80
2023-12-23T12:15:03.480Z,11.80
2023-12-23T12:23:05.607Z,11.60
2023-12-23T12:27:08.376Z,11.60
2023-12-23T12:30:50.760Z,11.50
2023-12-23T12:34:58.441Z,11.50
2023-12-23T12:38:43.317Z,11.50
2023-12-23T12:43:11.915Z,11.50
2023-12-23T12:47:40.436Z,11.50
2023-12-23T12:51:58.426Z,11.50
2023-12-23T12:55:40.967Z,11.50
2023-12-23T12:59:47.415Z,11.50
2023-12-23T13:03:31.221Z,11.50
2023-12-23T13:08:00.106Z,11.50
2023-12-23T13:12:10.653Z,11.60
2023-12-23T13:20:05.899Z,11.70
2023-12-23T13:23:49.535Z,11.80
2023-12-23T13:27:57.450Z,11.90
2023-12-23T13:31:40.181Z,12.00
2023-12-23T13:36:08.800Z,12.00
2023-12-23T13:40:21.364Z,12.10
2023-12-23T13:44:04.135Z,12.20
2023-12-23T13:48:32.038Z,12.20
2023-12-23T13:52:42.570Z,12.30
2023-12-23T13:56:25.824Z,12.30
2023-12-23T14:04:16.689Z,12.30
2023-12-23T14:08:28.259Z,12.20
2023-12-23T14:12:20.675Z,12.20
2023-12-23T14:16:28.628Z,12.20
2023-12-23T14:20:12.664Z,12.10
2023-12-23T14:24:28.579Z,12.10
2023-12-23T14:32:34.573Z,12.00
2023-12-23T14:41:16.901Z,11.80
2023-12-23T14:45:02.186Z,11.80
2023-12-23T14:49:05.476Z,11.60
2023-12-23T14:52:49.929Z,11.50
2023-12-23T15:00:35.252Z,11.30
2023-12-23T15:08:24.060Z,11.30
2023-12-23T15:20:57.293Z,11.10
2023-12-23T15:28:43.297Z,11.10
2023-12-23T15:33:03.675Z,11.10
2023-12-23T15:36:46.266Z,11.20
2023-12-23T15:44:32.776Z,11.10
2023-12-23T15:48:48.735Z,11.10
2023-12-23T15:52:31.312Z,11.00
2023-12-23T15:56:31.374Z,11.00
2023-12-23T16:00:14.231Z,11.00
2023-12-23T16:04:12.013Z,11.10
2023-12-23T16:07:54.565Z,11.10
2023-12-23T16:11:38.306Z,11.00
2023-12-23T16:15:31.416Z,11.00
2023-12-23T16:19:13.732Z,11.00
2023-12-23T16:22:58.337Z,11.00
2023-12-23T16:26:41.178Z,11.10
2023-12-23T16:30:23.419Z,11.10
2023-12-23T16:34:08.149Z,11.10
2023-12-23T16:37:51.782Z,11.10
2023-12-23T16:41:36.878Z,11.10
2023-12-23T16:45:20.197Z,11.10
2023-12-23T16:49:02.537Z,11.00
2023-12-23T16:52:45.352Z,11.00
2023-12-23T16:56:30.171Z,10.90
2023-12-23T17:00:12.958Z,11.00
2023-12-23T17:03:55.308Z,11.00
2023-12-23T17:07:37.678Z,11.10
2023-12-23T17:11:20.979Z,11.10
2023-12-23T17:15:03.500Z,11.10
2023-12-23T17:18:45.784Z,11.20
2023-12-23T17:22:30.983Z,11.10
2023-12-23T17:26:13.101Z,11.20
2023-12-23T17:29:55.346Z,11.00
2023-12-23T17:33:37.408Z,11.00
2023-12-23T17:37:22.072Z,10.90
2023-12-23T17:41:04.137Z,11.00
2023-12-23T17:44:46.118Z,10.90
2023-12-23T17:48:28.227Z,10.90
2023-12-23T17:52:10.393Z,10.80
2023-12-23T17:55:54.317Z,10.80
2023-12-23T17:59:37.595Z,10.70
2023-12-23T18:03:19.861Z,10.70
2023-12-23T18:07:02.016Z,10.60
2023-12-23T18:10:44.103Z,10.60
2023-12-23T18:14:28.753Z,10.60
2023-12-23T18:18:11.027Z,10.60
2023-12-23T18:21:53.513Z,10.60
2023-12-23T18:25:35.535Z,10.60
2023-12-23T18:29:18.385Z,10.50
2023-12-23T18:33:00.678Z,10.50
2023-12-23T18:36:43.438Z,10.50
2023-12-23T18:40:25.580Z,10.50
2023-12-23T18:44:10.435Z,10.50
2023-12-23T18:47:52.477Z,10.50
2023-12-23T18:51:35.297Z,10.50
2023-12-23T18:55:17.392Z,10.50
2023-12-23T18:58:59.591Z,10.50
2023-12-23T19:02:42.614Z,10.40
2023-12-23T19:06:24.848Z,10.40
2023-12-23T19:10:07.419Z,10.40
2023-12-23T19:13:49.722Z,10.40
2023-12-23T19:17:32.087Z,10.40
2023-12-23T19:21:14.634Z,10.50
2023-12-23T19:24:56.808Z,10.50
2023-12-23T19:28:39.324Z,10.50
2023-12-23T19:32:22.963Z,10.60
2023-12-23T19:36:07.065Z,10.60
2023-12-23T19:39:59.252Z,10.70
2023-12-23T19:43:45.560Z,10.60
2023-12-23T19:47:27.958Z,10.70
2023-12-23T19:51:10.409Z,10.70
2023-12-23T19:54:53.614Z,10.80
2023-12-23T19:58:36.056Z,10.80
2023-12-23T20:02:18.491Z,10.70
2023-12-23T20:06:00.889Z,10.70
2023-12-23T20:09:43.196Z,10.70
2023-12-23T20:13:25.609Z,10.70
2023-12-23T20:17:08.072Z,10.70
2023-12-23T20:20:50.346Z,10.70
2023-12-23T20:24:33.014Z,10.70
2023-12-23T20:28:15.312Z,10.70
2023-12-23T20:31:58.543Z,10.80
2023-12-23T20:35:40.847Z,10.90
2023-12-23T20:39:27.127Z,10.90
2023-12-23T20:43:19.998Z,11.00
2023-12-23T20:47:02.364Z,11.00
2023-12-23T20:50:45.139Z,11.00
2023-12-23T20:54:27.397Z,11.00
2023-12-23T20:58:09.448Z,11.00
2023-12-23T21:01:55.172Z,11.00
2023-12-23T21:05:39.076Z,10.90
2023-12-23T21:09:21.196Z,10.80
2023-12-23T21:13:03.386Z,10.70
2023-12-23T21:16:46.085Z,10.70
2023-12-23T21:20:28.343Z,10.60
2023-12-23T21:24:10.620Z,10.60
2023-12-23T21:27:52.712Z,10.60
2023-12-23T21:31:34.814Z,10.50
2023-12-23T21:35:17.064Z,10.50
2023-12-23T21:38:59.077Z,10.50
2023-12-23T21:42:41.557Z,10.50
2023-12-23T21:46:23.627Z,10.50
2023-12-23T21:50:06.628Z,10.50
2023-12-23T21:53:48.879Z,10.50
2023-12-23T21:57:30.930Z,10.50
2023-12-23T22:01:13.686Z,10.50
2023-12-23T22:04:55.988Z,10.50
2023-12-23T22:08:38.161Z,10.50
2023-12-23T22:12:21.788Z,10.50
2023-12-23T22:16:04.290Z,10.50
2023-12-23T22:19:47.763Z,10.50
2023-12-23T22:23:31.051Z,10.50
2023-12-23T22:27:21.004Z,10.50
2023-12-23T22:31:03.514Z,10.50
2023-12-23T22:34:45.930Z,10.40
2023-12-23T22:38:28.268Z,10.40
2023-12-23T22:42:10.415Z,10.40
2023-12-23T22:45:52.464Z,10.40
2023-12-23T22:49:34.984Z,10.40
2023-12-23T22:53:17.180Z,10.40
2023-12-23T22:57:02.468Z,10.50
2023-12-23T23:00:44.736Z,10.40
2023-12-23T23:04:26.885Z,10.40
2023-12-23T23:08:08.873Z,10.40
2023-12-23T23:11:50.960Z,10.50
2023-12-23T23:15:33.051Z,10.50
2023-12-23T23:19:15.284Z,10.50
2023-12-23T23:22:57.382Z,10.50
2023-12-23T23:26:39.529Z,10.60
2023-12-23T23:30:21.582Z,10.60
2023-12-23T23:34:03.677Z,10.70
2023-12-23T23:37:45.922Z,10.70
2023-12-23T23:41:30.540Z,10.70
2023-12-23T23:45:14.331Z,10.70
2023-12-23T23:48:59.682Z,10.80
2023-12-23T23:52:44.908Z,10.80
2023-12-23T23:56:34.150Z,10.80
